Aérodrome :
LOGIN :

S'inscrire | Disclaimer

   EN    FR    IT 

 










Légende :    VFR   VFR Marginal   IFR   IFR Intensif   IFR Très Intensif
Visi : 
Plafond : 
>= 8 km
>= 3000ft
5 à 8 km
1000 à 3000 ft
1500m à 5 km
500 à 1000 ft
800 à 1500m
200 à 500 ft
< 800m
< 200 ft
Symboles :   Orages  Brouillard  Fortes neiges  Fortes précipitations  Vent > 20 kt
SIGMETs :   Divers  Orages  Givrage  Turbulence  Onde Orograph.  Cendres Volcan.






- Altitude de l'aérodrome : 392 ft
- Code IATA : CDG


LFPG - Paris-Aeroport Charles De Gaulle

DERNIER METAR :
  • 240130Z 07006KT 4000 BR SCT004 BKN200 M01/M01 Q1024 NOSIG

METARs EXPIRÉS :
  • 240100Z 06008KT 040V100 4000 BR SCT004 BKN200 M00/M01 Q1024 NOSIG
  • 240030Z 07007KT 4000 BR SCT004 BKN200 M00/M01 Q1024 NOSIG
  • 240000Z 06010KT 4000 BR SCT002 BKN200 M01/M01 Q1025 NOSIG
  • 232330Z 06008KT 4000 0600N R27L/1400U R09R/1200U R26R/P2000 R08L/P2000 R26L/P2000 R08R/P2000 R27R/0900U R09L/1500U PRFG BR SCT001 SCT002 M01/M01 Q1025 NOSIG
  • 232300Z 05007KT 4000 0900N R27L/P2000 R09R/P2000 R26R/P2000 R08L/P2000 R26L/P2000 R08R/P2000 R27R/1600D R09L/P2000 PRFG BR FEW001 SCT002 M01/M01 Q1025 NOSIG

TAF AMD TAF LFPG
Valide du 24 à 01h jusqu'au 25 à 06h UTC


240108Z 2401/2506 05005KT 4000 BR SCT002 TX05/2415Z TNM02/2406Z
TEMPO 2401/2410 0500 FG BKN002
PROB40
TEMPO 2401/2407 FZFG VV///
BECMG 2409/2412 6000 NSW NSC
PROB30
TEMPO 2410/2419 BKN008
BECMG 2419/2421 BKN008
BECMG 2500/2502 3000 BR BKN003
PROB40
TEMPO 2500/2506 0500 FG VV///
ATIS : +33 1 48 62 10 92



MET'MAP, la Météo Aéronautique d'un coup d'oeil ! - Copyright ORBIFLY Décembre 2007 - Disclaimer

ORBIFLY MET'MAP TEAM :

Programmation & Développement : Alexandra Zaïnal
Sur une idée originale de : Baudouin d'Aumeries
Assistance à la programmation : Marc-Olivier Méhu
Soutien technique & logistique : Manuel Goepfert

Contact : metmap@orbifly.com




SOURCES & CREDITS :

   NOAA